createdAt,value
2023-05-21T00:00:00.000Z,18.47
2023-05-21T00:15:00.000Z,17.77
2023-05-21T00:30:00.000Z,17.45
2023-05-21T00:45:00.000Z,17.4
2023-05-21T01:00:00.000Z,16.98
2023-05-21T01:15:00.000Z,16.83
2023-05-21T01:30:00.000Z,16.39
2023-05-21T01:45:00.000Z,16.07
2023-05-21T02:00:00.000Z,15.7
2023-05-21T02:15:00.000Z,15.52
2023-05-21T02:30:00.000Z,15.03
2023-05-21T02:45:00.000Z,14.84
2023-05-21T03:00:00.000Z,14.66
2023-05-21T03:15:00.000Z,14.11
2023-05-21T03:30:00.000Z,13.89
2023-05-21T03:45:00.000Z,14.02
2023-05-21T04:00:00.000Z,14.22
2023-05-21T04:15:00.000Z,14.35
2023-05-21T04:30:00.000Z,14.58
2023-05-21T04:45:00.000Z,15.09
2023-05-21T05:00:00.000Z,16.18
2023-05-21T05:15:00.000Z,17.21
2023-05-21T05:30:00.000Z,17.92
2023-05-21T05:45:00.000Z,18.38
2023-05-21T06:00:00.000Z,19.38
2023-05-21T06:15:00.000Z,20.13
2023-05-21T06:30:00.000Z,20.64
2023-05-21T06:45:00.000Z,22.62
2023-05-21T07:00:00.000Z,26.09
2023-05-21T07:15:00.000Z,28.85
2023-05-21T07:30:00.000Z,29.79
2023-05-21T07:45:00.000Z,28.71
2023-05-21T08:00:00.000Z,28.62
2023-05-21T08:15:00.000Z,29.44
2023-05-21T08:30:00.000Z,30.1
2023-05-21T08:45:00.000Z,29.35
2023-05-21T09:00:00.000Z,29.34
2023-05-21T09:15:00.000Z,30.41
2023-05-21T09:30:00.000Z,30.55
2023-05-21T09:45:00.000Z,30.68
2023-05-21T10:00:00.000Z,29.95
2023-05-21T10:15:00.000Z,30.52
2023-05-21T10:30:00.000Z,30.05
2023-05-21T10:45:00.000Z,29.84
2023-05-21T11:00:00.000Z,29.44
2023-05-21T11:15:00.000Z,29.47
2023-05-21T11:30:00.000Z,29.22
2023-05-21T11:45:00.000Z,28.56
2023-05-21T12:00:00.000Z,28.19
2023-05-21T12:15:00.000Z,28.03
2023-05-21T12:30:00.000Z,27.89
2023-05-21T12:45:00.000Z,27.9
2023-05-21T13:00:00.000Z,27.9
2023-05-21T13:15:00.000Z,27.79
2023-05-21T13:30:00.000Z,27.76
2023-05-21T13:45:00.000Z,27.83
2023-05-21T14:00:00.000Z,27.93
2023-05-21T14:15:00.000Z,27.81
2023-05-21T14:30:00.000Z,27.84
2023-05-21T14:45:00.000Z,27.96
2023-05-21T15:00:00.000Z,27.74
2023-05-21T15:15:00.000Z,27.46
2023-05-21T15:30:00.000Z,27.37
2023-05-21T15:45:00.000Z,27.33
2023-05-21T16:00:00.000Z,27.07
2023-05-21T16:15:00.000Z,26.75
2023-05-21T16:30:00.000Z,26.51
2023-05-21T16:45:00.000Z,26.27
2023-05-21T17:00:00.000Z,26.03
2023-05-21T17:15:00.000Z,25.76
2023-05-21T17:30:00.000Z,25.52
2023-05-21T17:45:00.000Z,25.24
2023-05-21T18:00:00.000Z,24.94
2023-05-21T18:15:00.000Z,24.42
2023-05-21T18:30:00.000Z,24.01
2023-05-21T18:45:00.000Z,23.69
2023-05-21T19:00:00.000Z,23.33
2023-05-21T19:15:00.000Z,22.91
2023-05-21T19:30:00.000Z,22.51
2023-05-21T19:45:00.000Z,22.64
2023-05-21T20:00:00.000Z,22.33
2023-05-21T20:15:00.000Z,22.17
2023-05-21T20:30:00.000Z,21.96
2023-05-21T20:45:00.000Z,21.22
2023-05-21T21:00:00.000Z,20.77
2023-05-21T21:15:00.000Z,20.65
2023-05-21T21:30:00.000Z,20.41
2023-05-21T21:45:00.000Z,20.69
2023-05-21T22:00:00.000Z,20.52
2023-05-21T22:15:00.000Z,19.57
2023-05-21T22:30:00.000Z,19.09
2023-05-21T22:45:00.000Z,19.33
2023-05-21T23:00:00.000Z,19.35
2023-05-21T23:15:00.000Z,19.2
2023-05-21T23:30:00.000Z,18.87
2023-05-21T23:45:00.000Z,18.3
